Time;durP1;ratioP1;P1;durP2;ratioP2;P2;SDS_P1;SDS_P2;PMS_P1;PMS_P2;Temp;Humidity;BMP_temperature;BMP_pressure;BME280_temperature;BME280_humidity;BME280_pressure;Samples;Min_cycle;Max_cycle;Signal;HPM_P1;HPM_P2
2022/05/18 00:01:48;;;;;;;3.10;3.00;;;14.70;99.90;;;;;;4077847;28;19929;-43
2022/05/18 00:03:52;;;;;;;3.33;2.47;;;14.80;99.90;;;;;;4107028;28;20061;-42
2022/05/18 00:05:54;;;;;;;2.60;2.50;;;14.60;99.90;;;;;;4110068;28;20100;-43
2022/05/18 00:07:56;;;;;;;2.67;2.53;;;14.60;99.90;;;;;;4109754;28;20092;-43
2022/05/18 00:10:00;;;;;;;2.60;2.42;;;14.60;99.90;;;;;;4132483;28;20046;-43
2022/05/18 00:12:03;;;;;;;2.65;2.30;;;14.60;99.90;;;;;;4160592;28;20049;-43
2022/05/18 00:14:05;;;;;;;3.42;2.63;;;14.70;99.90;;;;;;4160549;28;20042;-44
2022/05/18 00:16:07;;;;;;;6.93;2.75;;;14.80;99.90;;;;;;4161183;28;20127;-42
2022/05/18 00:18:10;;;;;;;3.55;2.38;;;14.80;99.90;;;;;;4160155;28;20136;-43
2022/05/18 00:20:12;;;;;;;5.07;2.28;;;14.80;99.90;;;;;;4153345;28;20137;-43
2022/05/18 00:22:14;;;;;;;;;;;14.70;99.90;;;;;;4144977;28;20096;-45
2022/05/18 00:24:17;;;;;;;6.03;2.78;;;14.80;99.90;;;;;;4159125;28;20411;-44
2022/05/18 00:26:19;;;;;;;3.58;2.25;;;14.80;99.90;;;;;;4160460;28;20108;-44
2022/05/18 00:28:21;;;;;;;1.63;1.63;;;14.70;99.90;;;;;;4160707;28;20456;-43
2022/05/18 00:30:26;;;;;;;4.55;2.10;;;14.70;99.90;;;;;;4160533;28;20281;-43
2022/05/18 00:32:28;;;;;;;2.65;2.55;;;14.80;99.90;;;;;;4156816;28;20038;-43
2022/05/18 00:34:30;;;;;;;3.45;3.25;;;14.80;99.90;;;;;;4144195;28;20038;-43
2022/05/18 00:36:32;;;;;;;3.10;2.20;;;14.80;99.90;;;;;;4144022;28;20045;-42
2022/05/18 00:38:34;;;;;;;2.58;2.20;;;14.70;99.90;;;;;;4145386;28;20557;-43
2022/05/18 00:40:40;;;;;;;2.88;2.63;;;14.60;99.90;;;;;;4163155;28;20049;-43
2022/05/18 00:42:43;;;;;;;2.88;2.67;;;14.40;99.90;;;;;;4163772;28;20128;-43
2022/05/18 00:44:46;;;;;;;2.70;2.60;;;14.30;99.90;;;;;;4164024;28;20099;-43
2022/05/18 00:46:48;;;;;;;5.22;3.63;;;14.30;99.90;;;;;;4162783;28;20352;-43
2022/05/18 00:48:53;;;;;;;3.13;2.88;;;14.30;99.90;;;;;;4163881;28;20145;-44
2022/05/18 00:51:01;;;;;;;3.88;2.58;;;14.20;99.90;;;;;;4163620;28;20324;-42
2022/05/18 00:53:08;;;;;;;5.25;2.92;;;14.20;99.90;;;;;;4163588;28;20041;-42
2022/05/18 00:55:14;;;;;;;3.30;3.10;;;14.10;99.90;;;;;;4163633;28;20037;-42
2022/05/18 00:57:27;;;;;;;2.45;2.30;;;14.20;99.90;;;;;;4163663;28;20045;-43
2022/05/18 00:59:33;;;;;;;;;;;14.00;99.90;;;;;;4163619;28;20531;-43
2022/05/18 01:01:37;;;;;;;4.15;3.53;;;14.00;99.90;;;;;;4156754;28;19925;-43
2022/05/18 01:03:44;;;;;;;2.53;2.33;;;14.00;99.90;;;;;;4147632;28;20068;-43
2022/05/18 01:05:50;;;;;;;2.95;2.75;;;14.00;99.90;;;;;;4161866;28;20111;-44
2022/05/18 01:07:55;;;;;;;6.30;3.72;;;13.90;99.90;;;;;;4163707;28;20103;-43
2022/05/18 01:10:01;;;;;;;3.20;3.08;;;13.90;99.90;;;;;;4164038;28;20056;-43
2022/05/18 01:12:08;;;;;;;2.97;2.83;;;13.90;99.90;;;;;;4163641;28;20160;-43
2022/05/18 01:14:19;;;;;;;4.35;2.63;;;13.90;99.90;;;;;;4163722;28;20048;-42
2022/05/18 01:16:25;;;;;;;3.35;2.88;;;13.80;99.90;;;;;;4164019;28;20145;-43
2022/05/18 01:18:28;;;;;;;3.00;2.88;;;13.90;99.90;;;;;;4162242;28;20045;-44
2022/05/18 01:20:36;;;;;;;3.45;3.22;;;13.90;99.90;;;;;;4162565;28;20460;-42
2022/05/18 01:22:54;;;;;;;4.22;3.10;;;13.90;99.90;;;;;;4163893;28;20103;-42
2022/05/18 01:25:08;;;;;;;3.63;3.42;;;13.80;99.90;;;;;;4163848;28;20112;-43
2022/05/18 01:27:11;;;;;;;3.58;3.28;;;13.80;99.90;;;;;;4164030;28;20374;-44
2022/05/18 01:29:19;;;;;;;3.65;3.40;;;13.70;99.90;;;;;;4163728;28;20053;-43
2022/05/18 01:31:41;;;;;;;3.05;2.80;;;13.60;99.90;;;;;;4163671;28;20477;-43
2022/05/18 01:33:44;;;;;;;3.90;3.60;;;13.60;99.90;;;;;;4163840;28;20049;-43
2022/05/18 01:35:47;;;;;;;;;;;13.50;99.90;;;;;;4164220;28;20049;-42
2022/05/18 01:37:50;;;;;;;3.42;3.08;;;13.60;99.90;;;;;;4161874;28;20011;-43
2022/05/18 01:39:58;;;;;;;4.45;3.45;;;13.60;99.90;;;;;;4163192;28;20132;-43
2022/05/18 01:42:06;;;;;;;4.28;3.85;;;13.60;99.90;;;;;;4163145;28;20041;-43
2022/05/18 01:44:09;;;;;;;4.00;3.70;;;13.50;99.90;;;;;;4163520;28;20037;-43
2022/05/18 01:46:14;;;;;;;4.07;3.47;;;13.40;99.90;;;;;;4163791;28;20217;-43
2022/05/18 01:48:19;;;;;;;3.80;3.53;;;13.40;99.90;;;;;;4163275;28;20129;-42
2022/05/18 01:50:28;;;;;;;3.60;3.40;;;13.30;99.90;;;;;;4163116;28;20120;-43
2022/05/18 01:52:32;;;;;;;4.60;3.83;;;13.40;99.90;;;;;;4157021;28;20407;-43
2022/05/18 01:54:46;;;;;;;3.90;3.72;;;13.40;99.90;;;;;;4146982;28;20050;-43
2022/05/18 01:56:48;;;;;;;4.18;3.03;;;13.40;99.90;;;;;;4161484;28;20378;-43
2022/05/18 01:58:51;;;;;;;4.50;3.83;;;13.40;99.90;;;;;;4163365;28;20041;-43
2022/05/18 02:00:54;;;;;;;4.00;3.90;;;13.40;99.90;;;;;;4161970;28;20052;-44
2022/05/18 02:02:57;;;;;;;4.13;3.60;;;13.30;99.90;;;;;;4150074;28;20120;-43
2022/05/18 02:05:00;;;;;;;4.13;3.53;;;13.20;99.90;;;;;;4150302;28;20045;-44
2022/05/18 02:07:03;;;;;;;3.78;3.58;;;13.30;99.90;;;;;;4163349;28;20132;-43
2022/05/18 02:09:06;;;;;;;3.80;3.33;;;13.20;99.90;;;;;;4163007;28;20048;-42
2022/05/18 02:11:20;;;;;;;3.85;3.65;;;13.10;99.90;;;;;;4163078;28;20038;-42
2022/05/18 02:13:23;;;;;;;3.95;3.60;;;13.00;99.90;;;;;;4161965;28;20551;-42
2022/05/18 02:15:26;;;;;;;3.90;3.63;;;12.90;99.90;;;;;;4162883;28;20072;-42
2022/05/18 02:17:29;;;;;;;;;;;12.90;99.90;;;;;;4162847;28;20037;-42
2022/05/18 02:19:32;;;;;;;3.80;3.10;;;12.90;99.90;;;;;;4162801;28;19975;-43
2022/05/18 02:21:34;;;;;;;;;;;12.90;99.90;;;;;;4163101;28;20700;-43
2022/05/18 02:23:38;;;;;;;2.42;2.33;;;12.80;99.90;;;;;;4163164;28;19964;-42
2022/05/18 02:25:44;;;;;;;4.13;3.72;;;13.00;99.90;;;;;;4145290;28;20514;-42
2022/05/18 02:27:48;;;;;;;4.57;4.38;;;13.10;99.90;;;;;;4146518;28;20107;-42
2022/05/18 02:29:52;;;;;;;4.30;3.92;;;13.10;99.90;;;;;;4146180;28;20046;-42
2022/05/18 02:31:58;;;;;;;3.13;2.92;;;13.10;99.90;;;;;;4146415;28;20073;-44
2022/05/18 02:34:01;;;;;;;6.80;4.43;;;13.10;99.90;;;;;;4146454;28;20046;-42
2022/05/18 02:36:07;;;;;;;3.80;3.70;;;13.10;99.90;;;;;;4146311;28;20040;-43
2022/05/18 02:38:12;;;;;;;2.90;2.80;;;13.10;99.90;;;;;;4146469;28;20132;-42
2022/05/18 02:40:14;;;;;;;;;;;13.00;99.90;;;;;;4146561;28;20104;-43
2022/05/18 02:42:17;;;;;;;4.68;4.28;;;13.00;99.90;;;;;;4146649;28;20411;-43
2022/05/18 02:44:20;;;;;;;3.90;3.70;;;13.00;99.90;;;;;;4158067;28;20041;-42
2022/05/18 02:46:23;;;;;;;5.88;4.55;;;12.80;99.90;;;;;;4162438;28;20612;-43
2022/05/18 02:48:25;;;;;;;7.80;4.72;;;12.70;99.90;;;;;;4162672;28;20137;-42
2022/05/18 02:50:28;;;;;;;3.35;3.15;;;12.90;99.90;;;;;;4162140;28;20057;-42
2022/05/18 02:52:31;;;;;;;4.22;3.92;;;13.00;99.90;;;;;;4162246;28;20056;-44
2022/05/18 02:56:56;;;;;;;2.92;2.58;;;13.00;99.90;;;;;;4162198;28;20107;-43
2022/05/18 02:58:59;;;;;;;4.32;3.30;;;13.10;99.90;;;;;;4162376;28;20121;-43
2022/05/18 03:01:05;;;;;;;2.97;2.85;;;13.10;99.90;;;;;;4162007;28;20515;-42
2022/05/18 03:03:08;;;;;;;3.75;3.55;;;13.00;99.90;;;;;;4161557;28;20041;-44
2022/05/18 03:05:10;;;;;;;5.03;3.85;;;12.90;99.90;;;;;;4162215;28;20046;-43
2022/05/18 03:07:12;;;;;;;4.30;3.97;;;12.80;99.90;;;;;;4162089;28;20049;-43
2022/05/18 03:09:15;;;;;;;5.90;3.80;;;12.60;99.90;;;;;;4162312;28;20053;-42
2022/05/18 03:11:18;;;;;;;4.50;4.05;;;12.60;99.90;;;;;;4161668;28;20132;-42
2022/05/18 03:13:21;;;;;;;4.13;3.90;;;12.60;99.90;;;;;;4161794;28;20095;-42
2022/05/18 03:15:23;;;;;;;;;;;12.50;99.90;;;;;;4162588;28;20716;-42
2022/05/18 03:17:26;;;;;;;4.25;4.05;;;12.50;99.90;;;;;;4161559;28;20444;-43
2022/05/18 03:19:28;;;;;;;;;;;12.40;99.90;;;;;;4162774;28;20148;-43
2022/05/18 03:23:51;;;;;;;5.50;3.53;;;12.60;99.90;;;;;;4161857;28;20061;-42
2022/05/18 03:25:53;;;;;;;4.85;4.18;;;12.50;99.90;;;;;;4161947;28;20049;-44
2022/05/18 03:27:57;;;;;;;2.95;2.85;;;12.60;99.90;;;;;;4148548;28;20495;-42
2022/05/18 03:29:59;;;;;;;2.95;2.85;;;12.60;99.90;;;;;;4149066;28;20041;-43
2022/05/18 03:32:01;;;;;;;4.57;3.65;;;12.40;99.90;;;;;;4161747;28;20468;-43
2022/05/18 03:34:08;;;;;;;4.28;3.75;;;12.30;99.90;;;;;;4150065;28;20069;-42
2022/05/18 03:36:13;;;;;;;5.13;3.55;;;12.20;99.90;;;;;;4147633;28;20037;-42
2022/05/18 03:38:17;;;;;;;5.03;3.55;;;12.20;99.90;;;;;;4162083;28;20051;-44
2022/05/18 03:40:19;;;;;;;3.95;3.75;;;12.10;99.90;;;;;;4161466;28;20048;-43
2022/05/18 03:42:21;;;;;;;4.15;3.85;;;12.30;99.90;;;;;;4161414;28;20069;-42
2022/05/18 03:44:24;;;;;;;4.15;4.03;;;12.40;99.90;;;;;;4161818;28;20061;-41
2022/05/18 03:46:26;;;;;;;4.78;4.38;;;12.30;99.90;;;;;;4153533;28;20045;-43
2022/05/18 03:48:30;;;;;;;4.63;4.43;;;12.20;99.90;;;;;;4145136;28;20121;-43
2022/05/18 03:50:33;;;;;;;4.45;3.53;;;12.20;99.90;;;;;;4160048;28;20037;-43
2022/05/18 03:52:35;;;;;;;;;;;12.10;99.90;;;;;;4161767;28;20504;-43
2022/05/18 03:54:38;;;;;;;4.28;4.15;;;12.00;99.90;;;;;;4160966;28;19932;-42
2022/05/18 03:56:41;;;;;;;4.70;3.97;;;12.00;99.90;;;;;;4161373;28;20045;-43
2022/05/18 03:58:43;;;;;;;4.25;4.05;;;12.00;99.90;;;;;;4159815;28;20104;-43
2022/05/18 04:00:46;;;;;;;;;;;12.10;99.90;;;;;;4162092;28;20041;-44
2022/05/18 04:02:49;;;;;;;4.30;3.90;;;12.20;99.90;;;;;;4161079;28;19928;-43
2022/05/18 04:04:51;;;;;;;;;;;12.20;99.90;;;;;;4161371;28;20069;-43
2022/05/18 04:06:53;;;;;;;5.03;4.57;;;12.20;99.90;;;;;;4161561;28;19936;-43
2022/05/18 04:08:55;;;;;;;4.78;4.57;;;12.10;99.90;;;;;;4160606;28;20068;-43
2022/05/18 04:10:58;;;;;;;5.28;4.95;;;12.00;99.90;;;;;;4161021;28;20492;-43
2022/05/18 04:13:11;;;;;;;4.97;4.70;;;12.00;99.90;;;;;;4143674;28;20113;-44
2022/05/18 04:15:16;;;;;;;4.90;4.40;;;12.00;99.90;;;;;;4152302;28;20029;-43
2022/05/18 04:17:19;;;;;;;4.35;4.15;;;12.00;99.90;;;;;;4160889;28;20042;-42
2022/05/18 04:19:23;;;;;;;4.38;4.07;;;11.90;99.90;;;;;;4160484;28;20103;-42
2022/05/18 04:21:26;;;;;;;4.75;4.55;;;12.00;99.90;;;;;;4160014;28;20124;-43
2022/05/18 04:23:29;;;;;;;5.57;5.38;;;12.00;99.90;;;;;;4151382;28;20048;-42
2022/05/18 04:25:31;;;;;;;;;;;12.00;99.90;;;;;;4159652;28;20041;-45
2022/05/18 04:27:34;;;;;;;4.93;4.70;;;12.00;99.90;;;;;;4160905;28;19947;-43
2022/05/18 04:29:37;;;;;;;6.47;5.47;;;12.00;99.90;;;;;;4161072;28;20049;-43
2022/05/18 04:31:41;;;;;;;5.82;5.20;;;11.90;99.90;;;;;;4160592;28;20107;-43
2022/05/18 04:33:43;;;;;;;5.60;5.13;;;11.90;99.90;;;;;;4161024;28;20040;-43
2022/05/18 04:35:48;;;;;;;5.50;5.03;;;11.90;99.90;;;;;;4161162;28;20120;-42
2022/05/18 04:37:51;;;;;;;5.70;5.22;;;11.90;99.90;;;;;;4160755;28;20049;-42
2022/05/18 04:39:53;;;;;;;4.80;4.50;;;11.90;99.90;;;;;;4159455;28;20053;-42
2022/05/18 04:41:55;;;;;;;5.88;5.25;;;11.90;99.90;;;;;;4160771;28;20040;-42
2022/05/18 04:43:57;;;;;;;5.57;5.10;;;12.00;99.90;;;;;;4160677;28;20045;-42
2022/05/18 04:46:00;;;;;;;8.27;6.20;;;12.10;99.90;;;;;;4160837;28;20045;-42
2022/05/18 04:48:03;;;;;;;4.30;4.00;;;12.20;99.90;;;;;;4160916;28;20045;-43
2022/05/18 04:50:06;;;;;;;;;;;12.30;99.90;;;;;;4161145;28;20140;-42
2022/05/18 04:52:09;;;;;;;5.07;4.88;;;12.30;99.90;;;;;;4160716;28;20343;-42
2022/05/18 04:54:13;;;;;;;4.43;4.25;;;12.30;99.90;;;;;;4160189;28;20045;-42
2022/05/18 04:56:17;;;;;;;5.55;5.07;;;12.10;99.90;;;;;;4160675;28;20440;-42
2022/05/18 04:58:19;;;;;;;;;;;12.00;99.90;;;;;;4160972;28;20115;-43
2022/05/18 05:00:21;;;;;;;4.90;4.57;;;12.00;99.90;;;;;;4160380;28;19921;-43
2022/05/18 05:02:24;;;;;;;;;;;11.90;99.90;;;;;;4156959;28;20037;-43
2022/05/18 05:04:28;;;;;;;15.25;6.15;;;12.00;99.90;;;;;;4144426;28;19925;-42
2022/05/18 05:06:31;;;;;;;6.68;5.97;;;12.00;99.90;;;;;;4154868;28;20183;-42
2022/05/18 05:08:41;;;;;;;5.55;5.18;;;12.10;99.90;;;;;;4161019;28;20095;-43
2022/05/18 05:10:43;;;;;;;6.13;5.82;;;12.20;99.90;;;;;;4160506;28;20051;-42
2022/05/18 05:12:45;;;;;;;8.40;4.45;;;12.20;99.90;;;;;;4159007;28;20049;-42
2022/05/18 05:14:47;;;;;;;5.22;4.55;;;12.20;99.90;;;;;;4160161;28;20053;-42
2022/05/18 05:16:50;;;;;;;5.93;5.47;;;12.30;99.90;;;;;;4158700;28;20037;-43
2022/05/18 05:18:52;;;;;;;7.18;6.70;;;12.40;99.90;;;;;;4158358;28;20049;-43
2022/05/18 05:20:55;;;;;;;5.57;5.28;;;12.50;99.90;;;;;;4159573;28;20048;-43
2022/05/18 05:22:57;;;;;;;5.28;4.97;;;12.60;99.90;;;;;;4158474;28;20059;-42
2022/05/18 05:24:59;;;;;;;6.55;6.20;;;12.70;99.90;;;;;;4160116;28;20051;-43
2022/05/18 05:27:02;;;;;;;5.93;5.10;;;12.80;99.90;;;;;;4162094;28;20046;-43
2022/05/18 05:29:05;;;;;;;7.63;4.35;;;13.00;99.90;;;;;;4161158;28;20112;-43
2022/05/18 05:31:08;;;;;;;;;;;12.90;99.90;;;;;;4163486;28;20208;-43
2022/05/18 05:33:11;;;;;;;7.07;5.95;;;12.90;99.90;;;;;;4162876;28;19930;-42
2022/05/18 05:35:13;;;;;;;5.85;5.47;;;12.90;99.90;;;;;;4163200;28;20037;-43
2022/05/18 05:37:15;;;;;;;;;;;12.90;99.90;;;;;;4163075;28;20037;-42
2022/05/18 05:39:20;;;;;;;7.80;5.03;;;13.00;99.90;;;;;;4162707;28;19931;-43
2022/05/18 05:41:23;;;;;;;5.32;4.93;;;13.10;99.90;;;;;;4153795;28;20044;-44
2022/05/18 05:43:27;;;;;;;5.03;4.68;;;13.20;99.90;;;;;;4151412;28;20040;-42
2022/05/18 05:45:29;;;;;;;5.32;4.85;;;13.40;99.90;;;;;;4163258;28;20095;-44
2022/05/18 05:47:31;;;;;;;5.70;5.50;;;13.60;99.90;;;;;;4162901;28;20504;-44
2022/05/18 05:49:34;;;;;;;5.65;5.15;;;13.70;99.90;;;;;;4161515;28;20464;-43
2022/05/18 05:51:36;;;;;;;4.93;4.53;;;13.70;99.90;;;;;;4148245;28;20049;-44
2022/05/18 05:53:39;;;;;;;3.67;3.38;;;13.70;99.90;;;;;;4150294;28;20131;-43
2022/05/18 05:55:45;;;;;;;4.70;4.30;;;13.90;99.90;;;;;;4161860;28;20503;-43
2022/05/18 05:57:48;;;;;;;5.20;4.75;;;14.00;99.90;;;;;;4162571;28;20046;-43
2022/05/18 05:59:50;;;;;;;5.13;4.75;;;14.00;99.90;;;;;;4162566;28;20182;-43
2022/05/18 06:01:52;;;;;;;5.20;4.88;;;14.10;99.90;;;;;;4162943;28;20040;-43
2022/05/18 06:03:54;;;;;;;4.47;4.25;;;14.20;99.90;;;;;;4162399;28;20508;-43
2022/05/18 06:05:57;;;;;;;4.15;3.95;;;14.20;99.90;;;;;;4162465;28;20045;-43
2022/05/18 06:07:59;;;;;;;3.28;3.17;;;14.30;99.90;;;;;;4162507;28;20195;-43
2022/05/18 06:10:01;;;;;;;3.55;3.35;;;14.40;99.90;;;;;;4154168;28;20785;-43
2022/05/18 06:12:04;;;;;;;4.20;3.67;;;14.70;99.90;;;;;;4156722;28;20054;-43
2022/05/18 06:14:06;;;;;;;3.88;3.55;;;14.80;99.90;;;;;;4146836;28;20413;-44
2022/05/18 06:16:09;;;;;;;3.97;2.67;;;15.10;99.90;;;;;;4151744;28;20072;-45
2022/05/18 06:18:12;;;;;;;4.75;2.45;;;15.20;99.90;;;;;;4161888;28;20445;-43
2022/05/18 06:20:19;;;;;;;3.40;3.17;;;15.40;99.90;;;;;;4161889;28;20041;-43
2022/05/18 06:22:21;;;;;;;4.32;2.95;;;15.50;99.90;;;;;;4162205;28;20455;-44
2022/05/18 06:24:23;;;;;;;4.03;3.63;;;15.60;99.90;;;;;;4162403;28;20531;-44
2022/05/18 06:26:26;;;;;;;3.17;3.08;;;15.60;99.90;;;;;;4161981;28;20046;-44
2022/05/18 06:28:29;;;;;;;3.70;2.95;;;15.60;99.90;;;;;;4162211;28;20594;-44
2022/05/18 06:30:32;;;;;;;4.07;2.78;;;15.60;99.90;;;;;;4161938;28;20061;-44
2022/05/18 06:32:35;;;;;;;4.60;2.80;;;15.70;99.90;;;;;;4162006;28;20064;-45
2022/05/18 06:34:37;;;;;;;3.20;3.00;;;15.90;99.90;;;;;;4161944;28;20041;-45
2022/05/18 06:36:39;;;;;;;3.50;2.38;;;16.30;99.90;;;;;;4161303;28;20119;-44
2022/05/18 06:38:41;;;;;;;2.17;2.08;;;16.40;99.90;;;;;;4161405;28;20034;-44
2022/05/18 06:43:04;;;;;;;2.50;2.40;;;16.70;99.90;;;;;;4147397;28;20104;-44
2022/05/18 06:45:08;;;;;;;7.22;3.42;;;16.80;99.90;;;;;;4161679;28;20036;-45
2022/05/18 06:47:12;;;;;;;2.13;2.03;;;17.00;99.90;;;;;;4162156;28;20075;-44
2022/05/18 06:49:14;;;;;;;3.90;2.17;;;17.10;99.90;;;;;;4161553;28;20480;-44
2022/05/18 06:51:20;;;;;;;5.43;1.92;;;17.30;99.90;;;;;;4161471;28;20448;-44
2022/05/18 06:53:22;;;;;;;6.13;1.73;;;17.60;99.90;;;;;;4161825;28;20087;-44
2022/05/18 06:55:24;;;;;;;6.43;1.95;;;17.70;99.90;;;;;;4161552;28;20045;-44
2022/05/18 06:57:47;;;;;;;1.80;1.70;;;17.90;99.90;;;;;;4161561;28;20094;-44
2022/05/18 06:59:55;;;;;;;4.45;1.25;;;18.00;99.90;;;;;;4162281;28;20060;-44
2022/05/18 07:01:59;;;;;;;2.53;1.80;;;18.20;99.90;;;;;;4161595;28;20041;-44
2022/05/18 07:04:03;;;;;;;3.40;1.42;;;18.50;99.90;;;;;;4161457;28;20538;-44
2022/05/18 07:06:06;;;;;;;1.27;1.17;;;18.90;99.90;;;;;;4161846;28;20042;-44
2022/05/18 07:08:08;;;;;;;1.67;1.50;;;19.00;99.90;;;;;;4157655;28;20065;-44
2022/05/18 07:10:11;;;;;;;1.58;1.48;;;18.90;99.90;;;;;;4161895;28;20353;-43
2022/05/18 07:12:13;;;;;;;;;;;19.00;99.90;;;;;;4162103;28;20103;-45
2022/05/18 07:14:21;;;;;;;1.52;1.42;;;19.20;99.90;;;;;;4161385;28;19925;-46
2022/05/18 07:16:26;;;;;;;1.35;1.10;;;19.40;99.90;;;;;;4160366;28;20037;-43
2022/05/18 07:18:31;;;;;;;1.73;1.10;;;19.50;99.90;;;;;;4160915;28;20493;-45
2022/05/18 07:20:33;;;;;;;1.02;1.02;;;19.70;99.90;;;;;;4161243;28;20041;-43
2022/05/18 07:22:35;;;;;;;1.10;1.00;;;19.90;99.90;;;;;;4161001;28;20045;-45
2022/05/18 07:24:38;;;;;;;1.95;1.10;;;20.00;99.90;;;;;;4161551;28;20501;-44
2022/05/18 07:26:41;;;;;;;2.40;0.85;;;20.20;99.90;;;;;;4161278;28;20100;-44
2022/05/18 07:28:45;;;;;;;3.78;0.90;;;20.30;99.90;;;;;;4161367;28;20505;-44
2022/05/18 07:30:50;;;;;;;1.20;1.00;;;20.50;99.90;;;;;;4161133;28;20041;-44
2022/05/18 07:32:52;;;;;;;1.33;1.00;;;20.70;99.90;;;;;;4159649;28;20528;-44
2022/05/18 07:34:54;;;;;;;;;;;20.90;99.90;;;;;;4161272;28;20033;-44
2022/05/18 07:36:57;;;;;;;1.02;0.90;;;21.10;99.90;;;;;;4161188;28;19925;-44
2022/05/18 07:38:59;;;;;;;1.23;0.90;;;20.90;99.90;;;;;;4160967;28;20463;-44
2022/05/18 07:41:02;;;;;;;1.55;1.45;;;20.70;99.90;;;;;;4160687;28;20048;-44
2022/05/18 07:43:05;;;;;;;9.00;1.00;;;20.90;99.90;;;;;;4160764;28;20448;-44
2022/05/18 07:45:08;;;;;;;2.15;0.90;;;21.30;99.90;;;;;;4160764;28;20042;-44
2022/05/18 07:47:10;;;;;;;4.22;0.90;;;21.40;99.90;;;;;;4160722;28;20434;-44
2022/05/18 07:49:12;;;;;;;0.90;0.90;;;21.50;99.90;;;;;;4160818;28;20049;-44
2022/05/18 07:51:15;;;;;;;4.80;0.80;;;21.70;99.90;;;;;;4160449;28;20041;-44
2022/05/18 07:53:18;;;;;;;1.40;0.93;;;21.80;99.90;;;;;;4160830;28;20045;-45
2022/05/18 07:55:20;;;;;;;2.28;0.80;;;22.00;99.90;;;;;;4160621;28;20041;-43
2022/05/18 07:57:23;;;;;;;2.30;0.88;;;22.20;99.90;;;;;;4160883;28;20497;-45
2022/05/18 07:59:25;;;;;;;0.75;0.75;;;22.10;99.90;;;;;;4160478;28;20125;-45
2022/05/18 08:01:27;;;;;;;;;;;22.30;99.90;;;;;;4161360;28;20072;-44
2022/05/18 08:03:29;;;;;;;4.82;1.08;;;22.50;99.90;;;;;;4160941;28;20020;-45
2022/05/18 08:05:33;;;;;;;2.42;0.80;;;22.40;99.90;;;;;;4160632;28;20756;-44
2022/05/18 08:07:35;;;;;;;3.25;0.80;;;22.60;99.90;;;;;;4160527;28;20340;-45
2022/05/18 08:15:05;;;;;;;;;;;22.90;99.90;;;;;;4161318;28;20045;-44
2022/05/18 08:16:41;;;;;;;1.92;0.70;;;23.20;99.90;;;;;;4160639;28;20037;-44
2022/05/18 08:18:44;;;;;;;119.88;17.08;;;23.50;99.90;;;;;;4160268;28;20437;-45
2022/05/18 08:20:48;;;;;;;6.00;1.02;;;23.60;99.90;;;;;;4160055;28;20416;-44
2022/05/18 08:22:51;;;;;;;2.63;0.98;;;23.60;99.90;;;;;;4160723;28;20037;-44
2022/05/18 08:24:53;;;;;;;1.95;0.80;;;23.80;99.90;;;;;;4160342;28;20448;-44
2022/05/18 08:26:56;;;;;;;1.75;0.80;;;24.10;99.90;;;;;;4160358;28;20055;-45
2022/05/18 08:29:00;;;;;;;3.25;1.10;;;24.30;99.90;;;;;;4160433;28;20072;-43
2022/05/18 08:31:03;;;;;;;3.33;0.80;;;24.30;99.90;;;;;;4145215;28;20140;-43
2022/05/18 08:33:06;;;;;;;0.70;0.70;;;24.60;99.90;;;;;;4148563;28;20034;-44
2022/05/18 08:35:10;;;;;;;0.70;0.68;;;24.60;99.90;;;;;;4159235;28;20041;-43
2022/05/18 08:37:15;;;;;;;1.13;0.70;;;24.70;99.90;;;;;;4160303;28;20073;-44
2022/05/18 08:39:17;;;;;;;;;;;24.70;99.90;;;;;;4160396;28;20046;-44
2022/05/18 08:41:25;;;;;;;1.98;0.73;;;24.80;99.90;;;;;;4160142;28;19925;-44
2022/05/18 08:43:34;;;;;;;1.88;0.88;;;24.90;99.90;;;;;;4158624;28;20096;-43
2022/05/18 08:45:39;;;;;;;0.70;0.70;;;24.90;99.90;;;;;;4159149;28;20850;-44
2022/05/18 08:47:47;;;;;;;1.15;0.60;;;24.90;99.90;;;;;;4160122;28;20037;-44
2022/05/18 08:50:00;;;;;;;0.98;0.70;;;25.00;99.90;;;;;;4160234;28;20073;-44
2022/05/18 08:52:44;;;;;;;0.50;0.50;;;25.10;99.90;;;;;;4160175;28;20053;-45
2022/05/18 08:55:04;;;;;;;4.85;0.60;;;25.30;99.90;;;;;;4140815;28;20419;-45
2022/05/18 08:57:19;;;;;;;0.57;0.50;;;25.50;99.90;;;;;;4143883;28;20049;-45
2022/05/18 08:59:27;;;;;;;0.60;0.60;;;25.60;99.60;;;;;;4152895;28;20424;-44
2022/05/18 09:01:46;;;;;;;10.77;0.60;;;25.70;99.50;;;;;;4161343;28;20547;-44
2022/05/18 09:03:58;;;;;;;1.73;0.50;;;25.60;99.00;;;;;;4163392;28;20045;-45
2022/05/18 09:06:11;;;;;;;1.63;0.50;;;25.80;99.90;;;;;;4163327;28;20041;-43
2022/05/18 09:08:32;;;;;;;0.50;0.50;;;25.90;99.80;;;;;;4160526;28;20045;-44
2022/05/18 09:10:47;;;;;;;0.50;0.50;;;26.50;99.90;;;;;;4157597;28;20493;-45
2022/05/18 09:12:50;;;;;;;0.40;0.40;;;26.70;99.20;;;;;;4155894;28;20045;-45
2022/05/18 09:14:53;;;;;;;0.40;0.40;;;27.00;99.90;;;;;;4153158;28;20034;-44
2022/05/18 09:17:13;;;;;;;1.63;0.75;;;27.20;98.60;;;;;;4152879;28;20038;-43
2022/05/18 09:19:36;;;;;;;;;;;27.00;99.90;;;;;;4158594;28;20036;-44
2022/05/18 09:21:53;;;;;;;0.63;0.40;;;27.00;98.50;;;;;;4160179;28;19921;-44
2022/05/18 09:24:17;;;;;;;5.25;0.40;;;27.10;98.10;;;;;;4155675;28;20610;-47
2022/05/18 09:26:35;;;;;;;1.05;0.40;;;27.20;98.40;;;;;;4157561;28;20442;-45
2022/05/18 09:28:50;;;;;;;1.02;0.40;;;27.10;97.50;;;;;;4156334;28;20042;-44
2022/05/18 09:30:55;;;;;;;0.45;0.38;;;27.20;98.20;;;;;;4154082;28;20400;-44
2022/05/18 09:33:21;;;;;;;1.52;0.40;;;27.50;97.20;;;;;;4154421;28;20148;-45
2022/05/18 09:35:47;;;;;;;0.93;0.40;;;27.60;97.30;;;;;;4161096;28;20038;-45
2022/05/18 09:38:03;;;;;;;4.00;0.30;;;27.90;97.20;;;;;;4160868;28;20049;-45
2022/05/18 09:40:39;;;;;;;1.00;0.40;;;27.20;96.10;;;;;;4159469;28;20566;-44
2022/05/18 09:42:48;;;;;;;0.40;0.40;;;26.90;98.60;;;;;;4146543;28;20053;-45
2022/05/18 09:44:57;;;;;;;0.95;0.40;;;27.30;98.60;;;;;;4160278;28;20053;-44
2022/05/18 09:47:01;;;;;;;0.40;0.40;;;27.70;96.40;;;;;;4155217;28;20076;-44
2022/05/18 09:49:23;;;;;;;0.63;0.40;;;27.00;96.60;;;;;;4161622;28;20041;-44
2022/05/18 09:51:26;;;;;;;0.40;0.40;;;27.00;95.90;;;;;;4157007;28;20104;-44
2022/05/18 09:53:29;;;;;;;0.40;0.40;;;27.20;96.80;;;;;;4150743;28;20080;-44
2022/05/18 09:55:32;;;;;;;1.48;0.40;;;27.20;96.70;;;;;;4156998;28;20095;-45
2022/05/18 09:57:40;;;;;;;1.02;0.50;;;27.50;98.10;;;;;;4160336;28;20412;-45
2022/05/18 09:59:59;;;;;;;0.85;0.55;;;27.90;98.20;;;;;;4161067;28;20692;-44
2022/05/18 10:09:14;;;;;;;1.38;0.40;;;27.50;96.90;;;;;;4162134;28;20044;-44
2022/05/18 10:11:21;;;;;;;0.80;0.40;;;27.40;96.70;;;;;;4149198;28;20049;-45
2022/05/18 10:13:28;;;;;;;1.10;0.40;;;27.70;95.60;;;;;;4161892;28;20030;-44
2022/05/18 10:15:58;;;;;;;1.70;0.50;;;27.40;96.40;;;;;;4160596;28;20124;-44
2022/05/18 10:18:33;;;;;;;0.40;0.40;;;27.80;95.90;;;;;;4154567;28;20571;-44
2022/05/18 10:20:37;;;;;;;0.50;0.50;;;28.00;95.70;;;;;;4157139;28;20819;-43
2022/05/18 10:22:45;;;;;;;0.40;0.40;;;28.50;97.50;;;;;;4160576;28;20068;-46
2022/05/18 10:25:04;;;;;;;0.40;0.40;;;28.40;95.90;;;;;;4153857;28;20626;-44
2022/05/18 10:27:14;;;;;;;0.40;0.40;;;28.40;96.30;;;;;;4155994;28;20485;-44
2022/05/18 10:29:23;;;;;;;0.50;0.50;;;28.10;98.70;;;;;;4160402;28;20593;-44
2022/05/18 10:31:31;;;;;;;0.40;0.40;;;28.60;97.30;;;;;;4153681;28;20411;-45
2022/05/18 10:33:37;;;;;;;1.00;0.40;;;28.50;94.60;;;;;;4148609;28;20116;-44
2022/05/18 10:35:53;;;;;;;2.13;0.40;;;28.40;97.30;;;;;;4150937;28;20046;-45
2022/05/18 10:38:13;;;;;;;0.47;0.40;;;28.80;96.30;;;;;;4155590;28;20036;-45
2022/05/18 10:40:19;;;;;;;0.30;0.30;;;28.80;96.00;;;;;;4159055;28;20042;-45
2022/05/18 10:42:24;;;;;;;0.40;0.40;;;28.40;95.80;;;;;;4153408;28;20099;-44
2022/05/18 10:44:36;;;;;;;1.67;0.50;;;28.10;93.80;;;;;;4158404;28;20120;-44
2022/05/18 10:46:41;;;;;;;0.98;0.40;;;27.90;94.90;;;;;;4161202;28;20045;-44
2022/05/18 10:48:55;;;;;;;0.40;0.40;;;27.90;94.80;;;;;;4158375;28;20390;-45
2022/05/18 10:51:03;;;;;;;1.85;0.40;;;28.00;94.90;;;;;;4159596;28;20433;-44
2022/05/18 10:53:15;;;;;;;0.40;0.40;;;28.30;93.50;;;;;;4160565;28;20056;-44
2022/05/18 10:55:20;;;;;;;1.75;0.40;;;28.20;96.00;;;;;;4159813;28;20073;-45
2022/05/18 10:57:35;;;;;;;0.40;0.40;;;28.00;94.20;;;;;;4160074;28;20148;-44
2022/05/18 11:00:13;;;;;;;0.60;0.60;;;28.00;94.00;;;;;;4155747;28;20080;-45
2022/05/18 11:02:45;;;;;;;0.47;0.40;;;27.90;94.10;;;;;;4159108;28;20041;-43
2022/05/18 11:05:03;;;;;;;0.50;0.50;;;27.60;94.90;;;;;;4158527;28;20045;-44
2022/05/18 11:07:07;;;;;;;0.60;0.60;;;27.80;94.20;;;;;;4155692;28;20037;-44
2022/05/18 11:09:32;;;;;;;3.15;0.40;;;28.10;93.90;;;;;;4159090;28;20033;-44
2022/05/18 11:11:34;;;;;;;0.40;0.40;;;28.50;95.10;;;;;;4161347;28;20186;-44
2022/05/18 11:13:52;;;;;;;0.35;0.35;;;28.40;94.30;;;;;;4160998;28;20049;-44
2022/05/18 11:16:21;;;;;;;4.78;0.30;;;28.60;94.20;;;;;;4158665;28;20088;-44
2022/05/18 11:19:02;;;;;;;0.35;0.35;;;28.60;92.90;;;;;;4159899;28;20041;-44
2022/05/18 11:21:26;;;;;;;0.57;0.40;;;28.80;94.90;;;;;;4145105;28;20049;-44